createdAt,value
2017-11-04T00:00:09.713Z,25.80
2017-11-04T00:02:37.285Z,26.30
2017-11-04T00:05:04.852Z,26.10
2017-11-04T00:07:32.455Z,26.30
2017-11-04T00:10:00.020Z,26.50
2017-11-04T00:12:27.634Z,26.70
2017-11-04T00:14:55.186Z,25.50
2017-11-04T00:17:22.732Z,26.47
2017-11-04T00:19:50.311Z,26.77
2017-11-04T00:22:17.941Z,25.80
2017-11-04T00:24:45.540Z,25.33
2017-11-04T00:27:13.130Z,24.90
2017-11-04T00:29:40.656Z,24.37
2017-11-04T00:32:08.185Z,25.17
2017-11-04T00:34:35.754Z,25.27
2017-11-04T00:37:03.279Z,23.90
2017-11-04T00:39:30.830Z,25.97
2017-11-04T00:41:58.399Z,25.00
2017-11-04T00:44:25.963Z,23.87
2017-11-04T00:46:54.292Z,25.20
2017-11-04T00:49:21.982Z,26.23
2017-11-04T00:51:50.348Z,26.63
2017-11-04T00:54:17.878Z,27.03
2017-11-04T00:56:45.470Z,27.10
2017-11-04T00:59:13.293Z,26.13
2017-11-04T01:01:40.825Z,25.97
2017-11-04T01:04:08.512Z,26.50
2017-11-04T01:06:37.032Z,27.23
2017-11-04T01:09:04.559Z,27.80
2017-11-04T01:11:32.252Z,26.73
2017-11-04T01:14:00.593Z,25.73
2017-11-04T01:16:28.120Z,26.77
2017-11-04T01:18:55.677Z,26.83
2017-11-04T01:21:23.200Z,26.63
2017-11-04T01:23:50.759Z,26.00
2017-11-04T01:26:18.325Z,26.67
2017-11-04T01:28:45.848Z,27.87
2017-11-04T01:31:13.367Z,26.17
2017-11-04T01:33:40.996Z,28.30
2017-11-04T01:36:08.526Z,24.93
2017-11-04T01:38:36.853Z,26.20
2017-11-04T01:41:04.406Z,27.07
2017-11-04T01:43:31.950Z,26.80
2017-11-04T01:45:59.470Z,27.07
2017-11-04T01:48:26.596Z,27.03
2017-11-04T01:50:54.264Z,26.03
2017-11-04T01:53:21.297Z,25.50
2017-11-04T01:55:48.860Z,26.20
2017-11-04T01:58:16.396Z,28.10
2017-11-04T02:00:43.928Z,27.03
2017-11-04T02:03:13.799Z,29.97
2017-11-04T02:05:43.567Z,27.43
2017-11-04T02:08:14.453Z,25.63
2017-11-04T02:10:44.119Z,25.57
2017-11-04T02:13:11.639Z,26.63
2017-11-04T02:15:39.189Z,26.27
2017-11-04T02:18:08.897Z,26.90
2017-11-04T02:20:36.423Z,25.97
2017-11-04T02:23:03.971Z,27.57
2017-11-04T02:25:31.501Z,26.20
2017-11-04T02:27:59.804Z,26.57
2017-11-04T02:30:27.354Z,27.37
2017-11-04T02:32:54.882Z,25.90
2017-11-04T02:35:22.413Z,26.47
2017-11-04T02:37:49.962Z,26.63
2017-11-04T02:40:17.503Z,25.23
2017-11-04T02:42:45.028Z,24.07
2017-11-04T02:45:12.608Z,24.57
2017-11-04T02:47:40.146Z,24.83
2017-11-04T02:50:07.685Z,24.17
2017-11-04T02:52:35.259Z,25.73
2017-11-04T02:55:02.796Z,25.43
2017-11-04T02:57:30.319Z,26.73
2017-11-04T02:59:57.860Z,30.07
2017-11-04T03:02:25.391Z,26.17
2017-11-04T03:04:52.920Z,26.83
2017-11-04T03:07:21.238Z,24.70
2017-11-04T03:09:48.764Z,22.53
2017-11-04T03:12:16.288Z,23.83
2017-11-04T03:14:43.838Z,24.40
2017-11-04T03:17:11.355Z,24.90
2017-11-04T03:19:39.650Z,25.37
2017-11-04T03:22:07.192Z,25.00
2017-11-04T03:24:34.712Z,25.63
2017-11-04T03:27:02.999Z,24.60
2017-11-04T03:29:30.564Z,28.13
2017-11-04T03:31:58.098Z,25.40
2017-11-04T03:34:25.638Z,24.97
2017-11-04T03:36:53.184Z,24.83
2017-11-04T03:39:20.708Z,24.47
2017-11-04T03:41:48.240Z,24.87
2017-11-04T03:44:16.582Z,26.30
2017-11-04T03:46:44.100Z,22.13
2017-11-04T03:49:11.665Z,23.83
2017-11-04T03:51:39.219Z,23.33
2017-11-04T03:54:06.740Z,25.67
2017-11-04T03:56:34.264Z,25.30
2017-11-04T03:59:01.823Z,24.87
2017-11-04T04:01:29.361Z,25.43
2017-11-04T04:03:56.897Z,25.63
2017-11-04T04:06:24.446Z,24.93
2017-11-04T04:08:52.028Z,24.57
2017-11-04T04:11:19.562Z,24.83
2017-11-04T04:13:47.125Z,25.17
2017-11-04T04:16:15.435Z,25.97
2017-11-04T04:18:42.952Z,23.27
2017-11-04T04:21:10.495Z,26.53
2017-11-04T04:23:38.008Z,25.87
2017-11-04T04:26:05.541Z,24.80
2017-11-04T04:28:33.097Z,26.07
2017-11-04T04:31:00.625Z,23.27
2017-11-04T04:33:28.147Z,22.47
2017-11-04T04:35:55.711Z,22.97
2017-11-04T04:38:23.245Z,22.87
2017-11-04T04:40:50.763Z,23.23
2017-11-04T04:43:18.312Z,21.20
2017-11-04T04:45:45.840Z,24.00
2017-11-04T04:48:13.365Z,22.17
2017-11-04T04:50:41.687Z,22.87
2017-11-04T04:53:09.204Z,21.60
2017-11-04T04:55:36.727Z,24.17
2017-11-04T04:58:05.035Z,22.50
2017-11-04T05:00:32.550Z,22.77
2017-11-04T05:03:00.069Z,23.83
2017-11-04T05:05:27.611Z,22.53
2017-11-04T05:07:55.912Z,26.77
2017-11-04T05:10:23.426Z,26.47
2017-11-04T05:12:51.754Z,25.93
2017-11-04T05:15:20.199Z,25.17
2017-11-04T05:17:47.718Z,24.33
2017-11-04T05:20:15.256Z,24.73
2017-11-04T05:22:42.784Z,24.30
2017-11-04T05:25:11.078Z,24.03
2017-11-04T05:27:38.627Z,24.13
2017-11-04T05:30:06.149Z,25.57
2017-11-04T05:32:33.672Z,23.47
2017-11-04T05:35:01.980Z,24.83
2017-11-04T05:37:29.497Z,24.90
2017-11-04T05:39:57.026Z,25.23
2017-11-04T05:42:25.332Z,26.60
2017-11-04T05:44:52.899Z,26.40
2017-11-04T05:47:20.420Z,25.47
2017-11-04T05:49:47.958Z,28.40
2017-11-04T05:52:15.499Z,25.70
2017-11-04T05:54:43.020Z,27.10
2017-11-04T05:57:10.562Z,25.63
2017-11-04T05:59:38.073Z,25.93
2017-11-04T06:02:05.588Z,26.67
2017-11-04T06:04:33.154Z,27.03
2017-11-04T06:07:00.683Z,24.80
2017-11-04T06:09:28.209Z,27.83
2017-11-04T06:11:55.758Z,24.07
2017-11-04T06:14:23.274Z,27.33
2017-11-04T06:16:50.825Z,26.57
2017-11-04T06:19:18.361Z,26.27
2017-11-04T06:21:46.646Z,27.17
2017-11-04T06:24:14.159Z,26.80
2017-11-04T06:26:42.464Z,27.97
2017-11-04T06:29:10.003Z,24.33
2017-11-04T06:31:37.535Z,26.53
2017-11-04T06:34:05.076Z,21.03
2017-11-04T06:36:32.594Z,26.37
2017-11-04T06:39:00.893Z,26.23
2017-11-04T06:41:28.443Z,24.87
2017-11-04T06:43:55.950Z,30.30
2017-11-04T06:46:24.262Z,26.77
2017-11-04T06:48:51.815Z,28.80
2017-11-04T06:51:19.335Z,25.27
2017-11-04T06:53:46.854Z,23.87
2017-11-04T06:56:15.195Z,26.00
2017-11-04T06:58:42.713Z,23.60
2017-11-04T07:01:10.236Z,25.13
2017-11-04T07:03:37.782Z,23.40
2017-11-04T07:06:05.310Z,24.47
2017-11-04T07:08:32.820Z,24.43
2017-11-04T07:11:01.136Z,23.10
2017-11-04T07:13:28.666Z,23.07
2017-11-04T07:15:56.187Z,23.40
2017-11-04T07:18:24.514Z,25.27
2017-11-04T07:20:52.032Z,25.17
2017-11-04T07:23:19.558Z,24.87
2017-11-04T07:25:47.107Z,26.40
2017-11-04T07:28:15.392Z,23.43
2017-11-04T07:30:42.900Z,25.37
2017-11-04T07:33:10.438Z,22.67
2017-11-04T07:35:37.964Z,23.33
2017-11-04T07:38:06.280Z,24.97
2017-11-04T07:40:33.832Z,25.03
2017-11-04T07:43:01.372Z,23.77
2017-11-04T07:45:28.896Z,22.40
2017-11-04T07:47:56.450Z,23.20
2017-11-04T07:50:23.970Z,22.37
2017-11-04T07:52:51.491Z,23.30
2017-11-04T07:55:19.824Z,22.93
2017-11-04T07:57:47.378Z,21.47
2017-11-04T08:00:14.904Z,22.10
2017-11-04T08:02:43.186Z,24.00
2017-11-04T08:05:10.771Z,25.47
2017-11-04T08:07:38.299Z,23.87
2017-11-04T08:10:06.613Z,27.37
2017-11-04T08:12:34.146Z,25.30
2017-11-04T08:15:01.677Z,23.80
2017-11-04T08:17:29.219Z,24.33
2017-11-04T08:19:56.747Z,25.93
2017-11-04T08:22:24.536Z,25.97
2017-11-04T08:24:52.122Z,25.43
2017-11-04T08:27:20.424Z,22.53
2017-11-04T08:29:49.259Z,24.27
2017-11-04T08:32:16.853Z,23.50
2017-11-04T08:34:44.385Z,23.70
2017-11-04T08:37:12.040Z,23.43
2017-11-04T08:39:46.584Z,25.23
2017-11-04T08:42:14.621Z,25.30
2017-11-04T08:44:42.152Z,24.23
2017-11-04T08:47:10.214Z,26.90
2017-11-04T08:49:37.856Z,24.17
2017-11-04T08:52:06.385Z,24.87
2017-11-04T08:54:35.377Z,25.50
2017-11-04T08:57:02.908Z,24.37
2017-11-04T08:59:31.203Z,27.67
2017-11-04T09:01:58.743Z,28.73
2017-11-04T09:04:26.263Z,27.13
2017-11-04T09:06:54.562Z,29.07
2017-11-04T09:09:22.124Z,39.80
2017-11-04T09:11:49.643Z,31.87
2017-11-04T09:14:17.955Z,34.37
2017-11-04T09:16:45.504Z,40.33
2017-11-04T09:19:13.067Z,42.37
2017-11-04T09:21:41.379Z,45.27
2017-11-04T09:24:09.327Z,49.60
2017-11-04T09:26:37.099Z,61.20
2017-11-04T09:29:05.324Z,43.83
2017-11-04T09:31:33.136Z,38.00
2017-11-04T09:34:01.024Z,37.57
2017-11-04T09:36:28.782Z,46.27
2017-11-04T09:38:56.761Z,44.03
2017-11-04T09:41:25.224Z,45.00
2017-11-04T09:43:53.124Z,40.90
2017-11-04T09:46:20.922Z,44.87
2017-11-04T09:48:49.002Z,48.77
2017-11-04T09:51:16.709Z,49.77
2017-11-04T09:53:44.842Z,48.00
2017-11-04T09:56:12.942Z,48.87
2017-11-04T09:58:41.969Z,40.87
2017-11-04T10:01:10.163Z,42.13
2017-11-04T10:03:38.224Z,38.27
2017-11-04T10:06:06.412Z,43.10
2017-11-04T10:08:34.645Z,45.30
2017-11-04T10:11:02.528Z,41.47
2017-11-04T10:13:30.561Z,48.27
2017-11-04T10:15:58.454Z,49.87
2017-11-04T10:18:27.118Z,43.07
2017-11-04T10:20:56.198Z,40.37
2017-11-04T10:23:24.020Z,39.73
2017-11-04T10:25:52.290Z,41.30
2017-11-04T10:28:20.296Z,46.00
2017-11-04T10:30:48.300Z,40.47
2017-11-04T10:33:18.736Z,48.50
2017-11-04T10:35:46.637Z,49.23
2017-11-04T10:38:14.707Z,47.27
2017-11-04T10:40:42.690Z,44.93
2017-11-04T10:43:10.610Z,41.53
2017-11-04T10:45:38.680Z,48.67
2017-11-04T10:48:06.858Z,46.90
2017-11-04T10:50:34.676Z,46.27
2017-11-04T10:53:02.445Z,47.43
2017-11-04T10:55:30.259Z,43.87
2017-11-04T10:57:57.792Z,47.77
2017-11-04T11:00:25.812Z,55.27
2017-11-04T11:02:53.864Z,51.23
2017-11-04T11:05:21.733Z,44.67
2017-11-04T11:07:49.769Z,45.33
2017-11-04T11:10:17.391Z,43.70
2017-11-04T11:12:44.922Z,48.90
2017-11-04T11:15:13.262Z,51.40
2017-11-04T11:17:40.790Z,49.37
2017-11-04T11:20:08.319Z,55.60
2017-11-04T11:22:35.869Z,56.97
2017-11-04T11:25:03.397Z,50.13
2017-11-04T11:27:30.946Z,48.70
2017-11-04T11:29:58.564Z,48.73
2017-11-04T11:32:26.107Z,52.77
2017-11-04T11:34:53.663Z,50.93
2017-11-04T11:37:21.212Z,49.57
2017-11-04T11:39:48.740Z,48.23
2017-11-04T11:42:16.586Z,49.67
2017-11-04T11:44:44.438Z,50.60
2017-11-04T11:47:12.177Z,53.90
2017-11-04T11:49:39.992Z,53.60
2017-11-04T11:52:07.840Z,47.60
2017-11-04T11:54:35.602Z,53.90
2017-11-04T11:57:03.556Z,47.97
2017-11-04T11:59:31.404Z,55.67
2017-11-04T12:01:59.320Z,54.93
2017-11-04T12:04:27.071Z,55.17
2017-11-04T12:06:55.421Z,49.53
2017-11-04T12:09:23.163Z,50.90
2017-11-04T12:11:50.912Z,48.50
2017-11-04T12:16:52.741Z,44.33
2017-11-04T12:19:20.368Z,42.83
2017-11-04T12:21:47.941Z,43.03
2017-11-04T12:24:15.479Z,39.73
2017-11-04T12:26:43.038Z,42.00
2017-11-04T12:29:10.579Z,41.27
2017-11-04T12:31:38.112Z,38.67
2017-11-04T12:34:05.692Z,37.97
2017-11-04T12:36:33.250Z,33.77
2017-11-04T12:39:00.845Z,39.07
2017-11-04T12:41:28.406Z,33.83
2017-11-04T12:43:55.936Z,36.67
2017-11-04T12:46:23.489Z,37.43
2017-11-04T12:48:51.084Z,37.67
2017-11-04T12:51:19.387Z,37.07
2017-11-04T12:53:48.962Z,34.93
2017-11-04T12:56:17.146Z,39.17
2017-11-04T12:58:44.703Z,37.03
2017-11-04T13:01:12.350Z,32.80
2017-11-04T13:03:39.986Z,35.13
2017-11-04T13:06:07.532Z,35.57
2017-11-04T13:08:35.104Z,37.40
2017-11-04T13:11:02.676Z,39.83
2017-11-04T13:13:32.765Z,37.30
2017-11-04T13:16:04.099Z,36.17
2017-11-04T13:18:33.260Z,36.60
2017-11-04T13:21:02.396Z,37.07
2017-11-04T13:23:31.627Z,40.20
2017-11-04T13:26:01.856Z,38.43
2017-11-04T13:28:31.662Z,39.67
2017-11-04T13:31:02.002Z,40.07
2017-11-04T13:33:29.990Z,41.43
2017-11-04T13:35:57.595Z,36.13
2017-11-04T13:38:25.133Z,37.53
2017-11-04T13:40:52.671Z,39.77
2017-11-04T13:43:31.085Z,44.40
2017-11-04T13:45:58.948Z,39.13
2017-11-04T13:48:26.715Z,76.57
2017-11-04T13:50:54.487Z,53.47
2017-11-04T13:53:22.192Z,47.00
2017-11-04T13:55:49.996Z,36.53
2017-11-04T13:58:18.635Z,48.87
2017-11-04T14:00:46.224Z,65.53
2017-11-04T14:03:14.517Z,39.83
2017-11-04T14:05:42.269Z,46.77
2017-11-04T14:08:10.026Z,49.73
2017-11-04T14:10:37.685Z,48.53
2017-11-04T14:13:05.532Z,52.27
2017-11-04T14:15:33.113Z,80.77
2017-11-04T14:18:01.449Z,122.97
2017-11-04T14:20:29.289Z,75.47
2017-11-04T14:22:57.017Z,89.90
2017-11-04T14:25:24.812Z,68.77
2017-11-04T14:27:53.458Z,85.90
2017-11-04T14:30:21.159Z,93.87
2017-11-04T14:32:48.828Z,76.53
2017-11-04T14:35:16.674Z,110.20
2017-11-04T14:37:44.317Z,76.47
2017-11-04T14:40:11.931Z,130.03
2017-11-04T14:42:39.485Z,79.57
2017-11-04T14:45:07.235Z,47.77
2017-11-04T14:47:35.072Z,47.87
2017-11-04T14:50:02.984Z,45.23
2017-11-04T14:52:30.595Z,39.30
2017-11-04T14:54:58.912Z,33.50
2017-11-04T14:57:26.747Z,30.40
2017-11-04T14:59:54.470Z,33.60
2017-11-04T15:02:22.028Z,30.53
2017-11-04T15:04:49.732Z,30.50
2017-11-04T15:07:17.465Z,31.20
2017-11-04T15:09:45.292Z,33.10
2017-11-04T15:12:13.146Z,32.90
2017-11-04T15:14:40.920Z,30.07
2017-11-04T15:17:09.262Z,32.00
2017-11-04T15:19:37.135Z,30.83
2017-11-04T15:22:04.814Z,33.90
2017-11-04T15:24:33.075Z,30.07
2017-11-04T15:27:00.850Z,31.47
2017-11-04T15:29:28.530Z,28.53
2017-11-04T15:31:56.137Z,30.77
2017-11-04T15:34:23.986Z,27.23
2017-11-04T15:36:51.659Z,29.87
2017-11-04T15:39:19.310Z,31.87
2017-11-04T15:41:49.050Z,32.53
2017-11-04T15:44:16.961Z,29.97
2017-11-04T15:46:44.496Z,26.93
2017-11-04T15:49:12.165Z,26.37
2017-11-04T15:51:39.724Z,26.30
2017-11-04T15:54:07.263Z,25.43
2017-11-04T15:56:34.815Z,22.67
2017-11-04T15:59:02.364Z,22.93
2017-11-04T16:01:29.898Z,23.47
2017-11-04T16:03:57.486Z,27.33
2017-11-04T16:06:25.034Z,25.23
2017-11-04T16:08:52.670Z,23.13
2017-11-04T16:11:20.269Z,24.97
2017-11-04T16:13:47.797Z,25.73
2017-11-04T16:16:15.344Z,22.23
2017-11-04T16:18:44.060Z,24.37
2017-11-04T16:21:11.581Z,23.13
2017-11-04T16:23:39.145Z,23.63
2017-11-04T16:26:07.468Z,25.07
2017-11-04T16:28:35.036Z,25.40
2017-11-04T16:31:03.057Z,25.80
2017-11-04T16:33:30.820Z,28.23
2017-11-04T16:35:58.559Z,30.93
2017-11-04T16:38:26.126Z,30.57
2017-11-04T16:40:53.697Z,27.40
2017-11-04T16:43:21.259Z,25.40
2017-11-04T16:45:49.752Z,25.43
2017-11-04T16:48:18.304Z,26.10
2017-11-04T16:50:45.888Z,28.50
2017-11-04T16:53:13.471Z,30.07
2017-11-04T16:55:41.810Z,31.37
2017-11-04T16:58:09.358Z,35.60
2017-11-04T17:00:37.010Z,30.60
2017-11-04T17:03:04.695Z,31.93
2017-11-04T17:05:32.267Z,33.67
2017-11-04T17:07:59.797Z,31.47
2017-11-04T17:10:27.355Z,34.47
2017-11-04T17:12:55.842Z,34.77
2017-11-04T17:15:23.371Z,34.50
2017-11-04T17:17:50.929Z,36.43
2017-11-04T17:20:18.455Z,37.00
2017-11-04T17:22:45.992Z,36.53
2017-11-04T17:25:13.572Z,37.23
2017-11-04T17:27:41.107Z,36.83
2017-11-04T17:30:08.638Z,36.47
2017-11-04T17:32:36.196Z,39.40
2017-11-04T17:35:03.745Z,44.07
2017-11-04T17:37:31.291Z,40.90
2017-11-04T17:39:58.897Z,45.37
2017-11-04T17:42:26.457Z,42.03
2017-11-04T17:44:54.003Z,46.13
2017-11-04T17:47:21.574Z,47.70
2017-11-04T17:49:49.108Z,49.80
2017-11-04T17:52:16.667Z,47.73
2017-11-04T17:54:44.229Z,54.20
2017-11-04T17:57:11.763Z,65.73
2017-11-04T17:59:39.300Z,65.77
2017-11-04T18:02:06.859Z,67.93
2017-11-04T18:04:34.408Z,60.77
2017-11-04T18:07:02.776Z,47.30
2017-11-04T18:09:30.345Z,50.73
2017-11-04T18:11:57.883Z,50.00
2017-11-04T18:14:26.180Z,46.03
2017-11-04T18:16:53.749Z,48.87
2017-11-04T18:19:21.285Z,61.40
2017-11-04T18:21:48.816Z,52.27
2017-11-04T18:24:16.376Z,46.80
2017-11-04T18:26:43.920Z,47.47
2017-11-04T18:29:11.458Z,43.07
2017-11-04T18:31:39.041Z,49.03
2017-11-04T18:34:06.577Z,48.13
2017-11-04T18:36:34.126Z,47.47
2017-11-04T18:39:01.684Z,48.07
2017-11-04T18:41:29.984Z,42.70
2017-11-04T18:43:57.533Z,46.53
2017-11-04T18:46:25.088Z,43.60
2017-11-04T18:48:52.884Z,42.70
2017-11-04T18:51:21.534Z,43.30
2017-11-04T18:53:49.699Z,48.50
2017-11-04T18:56:18.032Z,39.57
2017-11-04T18:58:45.568Z,45.90
2017-11-04T19:01:13.278Z,41.43
2017-11-04T19:03:40.843Z,77.97
2017-11-04T19:06:08.514Z,66.73
2017-11-04T19:08:36.473Z,64.00
2017-11-04T19:11:04.246Z,61.67
2017-11-04T19:13:32.309Z,59.83
2017-11-04T19:16:01.008Z,51.70
2017-11-04T19:18:28.574Z,52.33
2017-11-04T19:20:56.107Z,54.73
2017-11-04T19:23:23.705Z,49.97
2017-11-04T19:25:51.294Z,51.00
2017-11-04T19:28:18.840Z,55.73
2017-11-04T19:30:46.468Z,51.90
2017-11-04T19:33:15.095Z,49.50
2017-11-04T19:35:42.696Z,55.40
2017-11-04T19:38:10.268Z,59.87
2017-11-04T19:40:37.802Z,59.47
2017-11-04T19:43:05.366Z,57.67
2017-11-04T19:45:32.924Z,54.47
2017-11-04T19:48:00.520Z,56.80
2017-11-04T19:50:28.858Z,57.23
2017-11-04T19:52:56.441Z,55.43
2017-11-04T19:55:23.982Z,54.17
2017-11-04T19:57:51.505Z,51.03
2017-11-04T20:00:19.831Z,52.07
2017-11-04T20:02:47.372Z,51.80
2017-11-04T20:05:14.978Z,52.07
2017-11-04T20:07:42.544Z,49.53
2017-11-04T20:10:10.097Z,51.40
2017-11-04T20:12:37.644Z,47.13
2017-11-04T20:15:05.219Z,49.57
2017-11-04T20:17:32.817Z,50.00
2017-11-04T20:20:01.118Z,44.60
2017-11-04T20:22:28.685Z,47.70
2017-11-04T20:24:56.202Z,46.17
2017-11-04T20:27:23.729Z,49.93
2017-11-04T20:29:51.295Z,48.57
2017-11-04T20:32:18.850Z,44.93
2017-11-04T20:34:46.381Z,49.60
2017-11-04T20:37:13.931Z,47.37
2017-11-04T20:39:41.459Z,41.87
2017-11-04T20:42:08.982Z,41.43
2017-11-04T20:44:36.537Z,42.90
2017-11-04T20:47:04.058Z,44.73
2017-11-04T20:49:31.621Z,45.40
2017-11-04T20:51:59.164Z,45.87
2017-11-04T20:54:26.704Z,46.00
2017-11-04T20:56:54.252Z,47.47
2017-11-04T20:59:21.807Z,49.03
2017-11-04T21:01:49.342Z,47.20
2017-11-04T21:04:17.255Z,46.47
2017-11-04T21:06:44.840Z,44.27
2017-11-04T21:09:12.842Z,46.23
2017-11-04T21:11:40.380Z,46.77
2017-11-04T21:14:07.947Z,40.33
2017-11-04T21:16:36.288Z,43.07
2017-11-04T21:19:03.824Z,45.57
2017-11-04T21:21:31.386Z,46.70
2017-11-04T21:23:58.944Z,46.00
2017-11-04T21:26:26.484Z,46.33
2017-11-04T21:28:54.060Z,44.10
2017-11-04T21:31:21.674Z,46.90
2017-11-04T21:33:49.228Z,44.10
2017-11-04T21:36:16.782Z,45.13
2017-11-04T21:38:44.327Z,46.77
2017-11-04T21:41:11.883Z,50.70
2017-11-04T21:43:39.452Z,49.83
2017-11-04T21:46:06.971Z,51.57
2017-11-04T21:48:35.050Z,55.80
2017-11-04T21:51:02.604Z,56.13
2017-11-04T21:53:30.147Z,54.17
2017-11-04T21:55:57.684Z,56.57
2017-11-04T21:58:25.246Z,54.20
2017-11-04T22:00:52.788Z,52.33
2017-11-04T22:03:20.321Z,52.67
2017-11-04T22:05:47.890Z,54.57
2017-11-04T22:08:15.584Z,52.23
2017-11-04T22:10:43.152Z,54.17
2017-11-04T22:13:10.718Z,46.43
2017-11-04T22:15:38.275Z,47.87
2017-11-04T22:18:05.823Z,51.33
2017-11-04T22:20:33.411Z,53.87
2017-11-04T22:23:01.003Z,58.30
2017-11-04T22:25:28.567Z,56.63
2017-11-04T22:27:56.135Z,49.80
2017-11-04T22:30:23.718Z,50.43
2017-11-04T22:32:51.264Z,45.17
2017-11-04T22:35:18.838Z,50.63
2017-11-04T22:37:46.369Z,47.23
2017-11-04T22:40:13.910Z,47.47
2017-11-04T22:42:41.481Z,46.10
2017-11-04T22:45:09.789Z,50.00
2017-11-04T22:47:39.926Z,49.70
2017-11-04T22:50:07.875Z,51.07
2017-11-04T22:52:35.687Z,51.30
2017-11-04T22:55:03.254Z,47.07
2017-11-04T22:57:31.602Z,45.90
2017-11-04T22:59:59.147Z,45.53
2017-11-04T23:02:27.348Z,45.10
2017-11-04T23:04:54.907Z,43.30
2017-11-04T23:07:22.448Z,40.63
2017-11-04T23:09:49.992Z,38.20
2017-11-04T23:12:17.553Z,34.20
2017-11-04T23:14:45.876Z,35.17
2017-11-04T23:17:13.440Z,35.60
2017-11-04T23:19:41.018Z,35.43
2017-11-04T23:22:08.552Z,33.10
2017-11-04T23:24:36.876Z,35.80
2017-11-04T23:27:04.494Z,34.53
2017-11-04T23:29:32.026Z,34.17
2017-11-04T23:31:59.614Z,37.33
2017-11-04T23:34:27.205Z,33.93
2017-11-04T23:36:54.755Z,36.93
2017-11-04T23:39:22.342Z,39.70
2017-11-04T23:41:49.938Z,38.33
2017-11-04T23:44:17.517Z,35.73
2017-11-04T23:46:45.092Z,36.50
2017-11-04T23:49:12.682Z,37.23
2017-11-04T23:51:40.254Z,37.67
2017-11-04T23:54:07.897Z,37.57
2017-11-04T23:56:35.507Z,37.90
2017-11-04T23:59:03.817Z,36.47
